Aviation Digital Data Service (ADDS)

Output produced by METARs form (1953 UTC 30 September 2014)
found at http://aviationweather.gov/adds/metars/
 
KPOU 301724Z 3018/0118 09004KT P6SM SCT010 BKN025 
     TEMPO 3018/3022 SCT025 
     FM010000 VRB03KT P6SM BKN020 
     FM010400 05003KT 5SM BR VCSH OVC015 
     FM011500 01007KT P6SM VCSH OVC020